AirNav   Air Wisconsin Up To $57,000 Bonus
 
 1540 users online  

KRBD Dallas Exec Airport
Dallas, Texas, USA

GOING TO DALLAS?


FAA INFORMATION EFFECTIVE 31 DECEMBER 2020

Location

FAA Identifier: RBD
Lat/Long: 32-40-52.7000N 096-52-07.6000W
32-40.878333N 096-52.126667W
32.6813056,-96.8687778
(estimated)
Elevation: 660.5 ft. / 201 m (estimated)
Variation: 06E (1990)
From city: 6 miles SW of DALLAS, TX
Time zone: UTC -6 (UTC -5 during Daylight Saving Time)
Zip code: 75237

Airport Operations

Airport use: Open to the public
Activation date: 09/1948
Control tower: yes
ARTCC: FORT WORTH CENTER
FSS: FORT WORTH FLIGHT SERVICE STATION
NOTAMs facility: RBD (NOTAM-D service available)
Attendance: 0600-2000
ON CALL AFT HRS.
Wind indicator: lighted
Segmented circle: yes
Lights: WHEN ATCT CLSD ACTVT PAPI RWY 13 & 17. MIRL RWY 13/31 AND 17/35 PRESET LOW INTST; TO INCR INTST ACTVT - CTAF.
Beacon: white-green (lighted land airport)
Operates sunset to sunrise.

Airport Communications

CTAF: 127.25
UNICOM: 122.95
ATIS: 126.35
WX ASOS: PHONE 214-330-5317
EXECUTIVE GROUND: 119.475 [0700-2100]
EXECUTIVE TOWER: 127.25 [0700-2100]
REGIONAL APPROACH: 125.2
REGIONAL DEPARTURE: 125.2
CLEARANCE DELIVERY: 118.625
DODJE STAR: 125.2 125.9
EMERG: 121.5
FINGR STAR: 124.3 125.275
GREGS STAR: 118.1
JFRYE STAR: 118.1
JOE POOL DP: 125.2
KNEAD STAR: 135.975
REEKO STAR: 125.2
SLANT STAR: 125.275
SWVAY STAR: 135.975
YEAGR STAR: 125.025 125.275
WX AWOS-3 at 49T (6 nm NE): 135.425 (214-670-1243)
WX AWOS-3P at GPM (9 nm W): 118.475 (972-606-1433)
WX AWOS-3 at LNC (10 nm SE): 118.975 (972-227-0471)
WX ASOS at DAL (10 nm N): PHONE 214-353-1551
WX ASOS at GKY (11 nm W): 127.375 (817-557-0251)
WX AWOS-3 at JWY (14 nm S): 119.575 (972-937-4747)
WX ASOS at DFW (16 nm NW): PHONE 972-615-2608
WX AWOS-3 at ADS (17 nm N): PHONE 972-386-4855
WX AWOS-3 at HQZ (18 nm E): 118.175 (972-222-7631)

Nearby radio navigation aids

VOR radial/distance  VOR name  Freq  Var
CVEr166/12.7COWBOY VOR/DME116.2006E
TTTr136/14.2MAVERICK VOR/DME113.1006E
FUZr123/20.0RANGER VORTAC115.7006E

 
NDB name  Hdg/Dist  Freq  Var  ID
MESQUITE243/18.824803EPQF .--. --.- ..-.
TRAVIS255/31.626006EAVZ .- ...- --..

Airport Services

Fuel available: 100LL JET-A
FUEL AVBL 24 HR WITH MAJOR CREDIT CARD.
Parking: hangars and tiedowns
Airframe service: MAJOR
Powerplant service: MAJOR
Bulk oxygen: HIGH/LOW

Runway Information

Runway 13/31

Dimensions: 7136 x 100 ft. / 2175 x 30 m
Surface: concrete/grooved, in good condition
Weight bearing capacity: 
Single wheel: 40.0
Double wheel: 90.0
Double tandem: 130.0
Runway edge lights: medium intensity
RUNWAY 13  RUNWAY 31
Latitude: 32-41.319333N32-40.485970N
Longitude: 096-52.680167W096-51.697752W
Elevation: 653.4 ft.646.9 ft.
Traffic pattern: leftleft
Runway heading: 129 magnetic, 135 true309 magnetic, 315 true
Displaced threshold: 1085 ft.500 ft.
Declared distances: TORA:6766 TODA:7136 ASDA:6622 LDA:5537TORA:6051 TODA:7136 ASDA:7101 LDA:6601
Markings: nonprecision, in good conditionprecision, in good condition
Visual slope indicator: 4-light PAPI on left (3.00 degrees glide path)4-light PAPI on right (3.00 degrees glide path)
Runway end identifier lights: yesyes
Touchdown point: yes, no lightsyes, no lights
Instrument approach: ILS/DME
Obstructions: none7 ft. road, 547 ft. from runway, 513 ft. right of centerline, 49:1 slope to clear

Runway 17/35

Dimensions: 3800 x 150 ft. / 1158 x 46 m
Surface: concrete, in good condition
Weight bearing capacity: 
Single wheel: 35.0
Double wheel: 60.0
Double tandem: 110.0
Runway edge lights: medium intensity
RUNWAY 17  RUNWAY 35
Latitude: 32-41.147942N32-40.521410N
Longitude: 096-52.007498W096-52.009178W
Elevation: 650.6 ft.659.2 ft.
Traffic pattern: leftleft
Runway heading: 174 magnetic, 180 true354 magnetic, 000 true
Markings: nonprecision, in good conditionnonprecision, in good condition
Visual slope indicator: 4-light PAPI on right (3.00 degrees glide path)
Runway end identifier lights: yesyes
Touchdown point: yes, no lightsyes, no lights

Airport Ownership and Management from official FAA records

Ownership: Publicly-owned
Owner: CITY OF DALLAS
1500 MARILLA
DALLAS, TX 75201
Phone 214-670-7612
Manager: CARLOS WILCHES
5303 CHALLENGER DR. LB 17
DALLAS, TX 75237
Phone 214-671-1296

Airport Operational Statistics

Aircraft based on the field: 280
Single engine airplanes: 187
Multi engine airplanes: 42
Jet airplanes: 32
Helicopters: 17
Gliders airplanes: 2
    
Aircraft operations: avg 118/day *
60% transient general aviation
39% local general aviation
<1% military
<1% air taxi
* for 12-month period ending 31 December 2015

Additional Remarks

BIRDS ON & INVOF ARPT.

Instrument Procedures

NOTE: All procedures below are presented as PDF files. If you need a reader for these files, you should download the free Adobe Reader.

NOT FOR NAVIGATION. Please procure official charts for flight.
FAA instrument procedures published for use from 31 December 2020 at 0901Z to 28 January 2021 at 0900Z.

 
STARs - Standard Terminal Arrivals
DODJE SIX   2 pages: [1] [2] (786KB)
FINGR SEVEN **NEW**   2 pages: [1] [2] (522KB)
GREGS NINE   2 pages: [1] [2] (609KB)
JFRYE THREE (RNAV)   download (274KB)
REEKO THREE (RNAV) **CHANGED**   download (225KB)
SLANT THREE (RNAV)   download (262KB)
SWVAY FOUR (RNAV)   download (256KB)
 
IAPs - Instrument Approach Procedures
ILS OR LOC RWY 31   download (242KB)
RNAV (GPS) RWY 17   download (179KB)
RNAV (GPS) RWY 31   download (202KB)
RNAV (GPS) RWY 35   download (182KB)
VOR RWY 17 **NEW**   download (209KB)
NOTE: Special Alternate Minimums apply   download (34KB)
 
Departure Procedures
DALLAS SEVEN **NEW**   2 pages: [1] [2] (448KB)
GARLAND NINE **NEW**   2 pages: [1] [2] (414KB)
JOE POOL TWO **NEW**   2 pages: [1] [2] (613KB)
KINGDOM EIGHT **NEW**   2 pages: [1] [2] (451KB)
KUSSO SEVEN (RNAV) **NEW**   2 pages: [1] [2] (389KB)
SWABR SEVEN (RNAV) **NEW**   2 pages: [1] [2] (386KB)
TEXOMA NINE **NEW**   2 pages: [1] [2] (541KB)
WORTH FIVE **NEW**   2 pages: [1] [2] (492KB)
NOTE: Special Take-Off Minimums/Departure Procedures apply   download

Other nearby airports with instrument procedures:

KGPM - Grand Prairie Municipal Airport (9 nm W)
KLNC - Lancaster Regional Airport (10 nm SE)
KDAL - Dallas Love Field Airport (10 nm N)
KGKY - Arlington Municipal Airport (11 nm W)
KJWY - Mid-Way Regional Airport (14 nm S)
KDFW - Dallas-Fort Worth International Airport (16 nm NW)
KADS - Addison Airport (17 nm N)
KHQZ - Mesquite Metro Airport (18 nm E)
 
Loc | Ops | Rwys | IFR | FBO | Links
Com | Nav | Svcs | Stats | Notes

Dallas Jet
 
Area around KRBD (Dallas Exec Airport)
 
Road maps at: MapQuest Bing Google
 
Aerial photo
WARNING: Photo may not be current or correct
Aerial photo of KRBD (Dallas Exec Airport)
Photo by Bryant Sivess
Photo taken 07-Dec-2015
looking northwest.

Do you have a better or more recent aerial photo of Dallas Exec Airport that you would like to share? If so, please send us your photo.

 
Sectional chart

 
Airport diagram
CAUTION: Diagram may not be current
Diagram of KRBD (Dallas Exec Airport)
Download PDF
of official airport diagram from the FAA

 
Airport distance calculator
Flying to Dallas Exec Airport? Find the distance to fly.

From to KRBD

Sunrise and sunset
Times for 26-Jan-2021
 Local
(UTC-6)
 Zulu
(UTC)
Morning civil twilight07:0113:01
Sunrise07:2713:27
Sunset17:5323:53
Evening civil twilight18:2000:20

Current date and time
Zulu (UTC)  26-Jan-2021 19:29:40
Local (UTC-6)  26-Jan-2021 13:29:40
 
METAR
KRBD 261853Z 01007KT 340V060 10SM CLR 12/M01 A2993 RMK AO2 SLP131 T01221006
KGPM 
9nm W 
261850Z 02007KT 10SM SKC 11/M01 A2996
KLNC 
10nm SE 
261915Z AUTO 04005KT 10SM CLR 11/01 A2995 RMK AO2 T01140012
KDAL 
10nm N 
261853Z 02008KT 10SM FEW040 FEW070 13/00 A2993 RMK AO2 SLP134 T01280000 $
KGKY 
12nm W 
261853Z 01010KT 10SM CLR 12/00 A2994 RMK AO2 SLP137 T01220000 $
KJWY 
14nm S 
261915Z AUTO 02004KT 10SM CLR 12/02 A2994 RMK AO2 T01230024
KDFW 
15nm NW 
261853Z 03007KT 10SM FEW100 11/00 A2993 RMK AO2 SLP133 T01060000
KADS 
17nm N 
261853Z 04006KT 13SM SKC 11/M01 A2995
KHQZ 
18nm E 
261850Z 35008G13KT 10SM FEW100 10/01 A2995
TAF
KDAL 
10nm N 
261720Z 2618/2718 03007KT P6SM FEW250 FM270400 36008KT P6SM BKN070 FM271200 32009KT P6SM SCT250 FM271600 34015KT P6SM FEW250
KGKY 
12nm W 
261720Z 2618/2718 02008KT P6SM FEW250 FM270400 36008KT P6SM BKN070 FM271200 32009KT P6SM SCT250 FM271600 34015KT P6SM FEW250
KDFW 
15nm NW 
261720Z 2618/2724 03008KT P6SM FEW250 FM270400 36008KT P6SM BKN070 FM271200 32009KT P6SM SCT250 FM271600 34015KT P6SM FEW250
NOTAMs
Click for the latest NOTAMs
NOTAMs are issued by the DoD/FAA and will open in a separate window not controlled by AirNav.

 

 
 

FBO, Fuel Providers, and Aircraft Ground Support

  
 Business Name 
 
 Contact 
 
 Services / Description 
 
Fuel Prices
 
Comments
  
Ambassador Jet Center
Ambassador Jet Center
ASRI 131.90
214-623-8800
214-251-6512
[web site]
[email]
Premier FBO situated minutes south of Downtown Dallas in the growing Southern Sector of the Dallas warehouse and distribution district.

No daily ramp or landing fees (overnight ramp and hangar fees do apply.)

Enjoy unmatched personal service and inviting facilities designed to make your stay enjoyable.

Give one of our Customer Service Agents a call today and let us arrange your next Metro Dallas area visit..
More info and photos of Ambassador Jet Center
 
AirBoss™ fuel program   Limousine service   NATA Safety 1st   U.S. Government AIR Card   CAA Preferred FBO   UVair   World Fuel Contract Fuel   Contract Fuel   Crew cars   Enterprise Rent-A-Car   Go Rentals   Hertz   National Business Aviation Association  
 
Avfuel
100LL Jet A
FS $4.14 $3.64 
GUARANTEED
AirBossMEMBER
PRICING
FS $4.04 $3.49 
 
   40 read write
Dallas Jet
Call for volume discounts
ASRI 128.975
817-532-5080
[web site]
[email]
NOW OPEN

We know maximizing your time on the ground is important. Dallas Jet is conveniently located less than 20 minutes from downtown Dallas. Let our concierge team coordinate everything you need to make the most of your trip to Dallas.

- Fuel Volume Discounts
- Contract Fuel
- After-hours Available
- Courtesy Vehicles
- Rental Cars On-Site
- Hangar & Office Space Available
- Aircraft Sales (Jet Agency)
- 135 Charter (Jet Access Aviation)
- Less than 20 minutes from Downtown Dallas
- Minutes from the Convention Center & Market Center
- Easy access to I-35
- Call for Customized Fuel Pricing
More info and photos of Dallas Jet
 
NATA Safety 1st   Shell Aviation Contract Fuel   Shell AeroClass   Contract Fuel   Crew cars   Enterprise Rent-A-Car   Go Rentals   Certificated Pilot School   Wireless Internet Access (WiFi)   National Business Aviation Association  
 
Titan
100LL Jet A
FS $4.09 $3.59 
GUARANTEED
 
   9 read write
Alternatives at nearby airports
IMPORTANT: Note that the FBOs below are NOT at KRBD but at other nearby airports. Do not expect services from these FBOs to be available at KRBD.
Located at KHQZ
 Mesquite Metro Airport
972-216-4132
972-216-4130
[web site]
[email]
At KHQZ (Mesquite Metro Airport), 18 miles ENE

No delays. Competitive prices. Sincere Service. Touch down at Mesquite Metro Airport and find out why we are the best approach into Dallas.
More info and photos of Mesquite Metro Airport (KHQZ)
Located at KHQZ
Shell
100LL Jet A
FS $4.30 $4.05 
SS $3.65 $3.55 
GUARANTEED
 
   5 read write
FS=Full service
SS=Self service
Update Fuel Prices
 

Getting Around: Taxi, Limo, Rental Cars, Mass Transit

  
 Business Name 
 
 Contact 
 
Services / Description
 
Comments
  
DART, Red Bird Transit Center 214-979-1111
no information available

If you are affiliated with DART, Red Bird Transit Center and would like to show here your services, contact info, web link, logo, and more, click here
 
   write
 

Where to Eat: Catering, Restaurants, Food shops

  
 Business Name 
 
 Contact 
 
 Services / Description 
 
Distance
 
Comments
  
Delta Charlie's Restaurant Bar and Grill 214-623-9944
no information available

If you are affiliated with Delta Charlie's Restaurant Bar and Grill and would like to show here your services, contact info, web link, logo, and more, click here
on airport  
   2 read write
 

Would you like to see your business listed on this page?

 If your business provides an interesting product or service to pilots, flight crews, aircraft, or users of the Dallas Exec Airport, you should consider listing it here.  To start the listing process, click on the button below
 
Add a business
 

Other Pages about Dallas Exec Airport

www.dallasexecairport.com
 
Update a link
 
Copyright © AirNav, LLC. All rights reserved. Privacy Policy  Contact